createdAt,value
2018-03-03T00:00:38.734Z,23.8
2018-03-03T00:01:28.756Z,23.8
2018-03-03T00:02:17.842Z,23.7
2018-03-03T00:03:08.513Z,23.8
2018-03-03T00:03:57.595Z,23.9
2018-03-03T00:04:49.580Z,23.9
2018-03-03T00:05:39.693Z,24.1
2018-03-03T00:06:28.210Z,24.2
2018-03-03T00:07:18.599Z,24.3
2018-03-03T00:08:09.384Z,24.4
2018-03-03T00:08:59.018Z,24.6
2018-03-03T00:09:48.653Z,24.7
2018-03-03T00:10:38.677Z,24.8
2018-03-03T00:11:28.700Z,24.6
2018-03-03T00:12:18.637Z,24.2
2018-03-03T00:13:08.536Z,24.2
2018-03-03T00:13:58.862Z,24.1
2018-03-03T00:14:49.512Z,24.1
2018-03-03T00:15:39.935Z,24
2018-03-03T00:16:28.867Z,24
2018-03-03T00:17:19.359Z,23.7
2018-03-03T00:18:10.479Z,23.6
2018-03-03T00:18:59.329Z,23.6
2018-03-03T00:19:49.387Z,23.6
2018-03-03T00:20:39.881Z,23.6
2018-03-03T00:21:28.971Z,23.6
2018-03-03T00:22:19.239Z,23.6
2018-03-03T00:23:08.674Z,23.6
2018-03-03T00:24:00.948Z,23.6
2018-03-03T00:24:49.517Z,23.6
2018-03-03T00:25:40.873Z,23.7
2018-03-03T00:26:29.404Z,23.8
2018-03-03T00:27:20.118Z,23.9
2018-03-03T00:28:09.993Z,24.1
2018-03-03T00:28:59.629Z,24.2
2018-03-03T00:29:49.615Z,24.3
2018-03-03T00:30:39.828Z,24.4
2018-03-03T00:31:29.742Z,24.6
2018-03-03T00:32:19.285Z,24.7
2018-03-03T00:33:09.345Z,24.6
2018-03-03T00:34:00.510Z,24.1
2018-03-03T00:34:50.081Z,24.1
2018-03-03T00:35:39.854Z,24
2018-03-03T00:36:30.773Z,23.9
2018-03-03T00:37:20.990Z,23.9
2018-03-03T00:38:10.178Z,23.9
2018-03-03T00:39:01.425Z,23.6
2018-03-03T00:39:49.630Z,23.5
2018-03-03T00:40:39.697Z,23.4
2018-03-03T00:41:31.038Z,23.4
2018-03-03T00:42:20.903Z,23.5
2018-03-03T00:43:09.844Z,23.4
2018-03-03T00:44:00.702Z,23.5
2018-03-03T00:44:51.831Z,23.6
2018-03-03T00:45:41.629Z,23.5
2018-03-03T00:46:31.511Z,23.5
2018-03-03T00:47:22.241Z,23.6
2018-03-03T00:48:13.403Z,23.7
2018-03-03T00:49:01.184Z,23.8
2018-03-03T00:49:52.236Z,23.9
2018-03-03T00:50:42.372Z,24.1
2018-03-03T00:51:31.319Z,24.1
2018-03-03T00:52:21.569Z,24.3
2018-03-03T00:53:11.589Z,24.4
2018-03-03T00:54:02.015Z,24.6
2018-03-03T00:54:51.405Z,24.6
2018-03-03T00:55:42.179Z,24.1
2018-03-03T00:56:32.573Z,23.9
2018-03-03T00:57:21.197Z,23.9
2018-03-03T00:58:13.088Z,23.9
2018-03-03T00:59:02.324Z,23.8
2018-03-03T00:59:52.574Z,23.8
2018-03-03T01:00:42.670Z,23.6
2018-03-03T01:01:32.426Z,23.4
2018-03-03T01:02:22.628Z,23.4
2018-03-03T01:03:12.899Z,23.4
2018-03-03T01:04:02.615Z,23.4
2018-03-03T01:04:52.770Z,23.4
2018-03-03T01:05:44.109Z,23.4
2018-03-03T01:06:33.544Z,23.4
2018-03-03T01:07:23.279Z,23.4
2018-03-03T01:08:13.152Z,23.4
2018-03-03T01:09:03.144Z,23.5
2018-03-03T01:09:54.050Z,23.6
2018-03-03T01:10:43.511Z,23.7
2018-03-03T01:11:34.369Z,23.9
2018-03-03T01:12:23.796Z,24
2018-03-03T01:13:13.040Z,24.1
2018-03-03T01:14:03.094Z,24.3
2018-03-03T01:14:54.107Z,24.4
2018-03-03T01:15:43.666Z,24.4
2018-03-03T01:16:33.668Z,23.9
2018-03-03T01:17:23.995Z,23.9
2018-03-03T01:18:13.266Z,23.8
2018-03-03T01:19:04.042Z,23.8
2018-03-03T01:19:54.248Z,23.8
2018-03-03T01:20:44.380Z,23.8
2018-03-03T01:21:34.231Z,23.5
2018-03-03T01:22:23.226Z,23.3
2018-03-03T01:23:13.020Z,23.3
2018-03-03T01:24:03.299Z,23.3
2018-03-03T01:24:52.657Z,23.3
2018-03-03T01:25:43.761Z,23.3
2018-03-03T01:26:34.090Z,23.3
2018-03-03T01:27:24.561Z,23.3
2018-03-03T01:28:13.765Z,23.3
2018-03-03T01:29:04.694Z,23.3
2018-03-03T01:29:54.170Z,23.4
2018-03-03T01:30:44.857Z,23.5
2018-03-03T01:31:35.118Z,23.6
2018-03-03T01:32:24.217Z,23.7
2018-03-03T01:33:13.617Z,23.8
2018-03-03T01:34:04.734Z,23.9
2018-03-03T01:34:55.376Z,24.1
2018-03-03T01:35:44.443Z,24.3
2018-03-03T01:36:35.895Z,24.3
2018-03-03T01:37:23.837Z,24.4
2018-03-03T01:38:13.920Z,23.9
2018-03-03T01:39:05.675Z,23.8
2018-03-03T01:39:55.517Z,23.8
2018-03-03T01:40:44.428Z,23.8
2018-03-03T01:41:35.642Z,23.7
2018-03-03T01:42:25.694Z,23.4
2018-03-03T01:43:14.445Z,23.3
2018-03-03T01:44:04.946Z,23.2
2018-03-03T01:44:54.860Z,23.2
2018-03-03T01:45:45.694Z,23.2
2018-03-03T01:46:36.179Z,23.2
2018-03-03T01:47:26.283Z,23.3
2018-03-03T01:48:16.399Z,23.3
2018-03-03T01:49:05.944Z,23.2
2018-03-03T01:49:56.341Z,23.3
2018-03-03T01:50:46.144Z,23.4
2018-03-03T01:51:35.336Z,23.4
2018-03-03T01:52:26.340Z,23.6
2018-03-03T01:53:16.122Z,23.8
2018-03-03T01:54:05.754Z,23.9
2018-03-03T01:54:57.001Z,24.1
2018-03-03T01:55:46.256Z,24.2
2018-03-03T01:56:35.842Z,24.3
2018-03-03T01:57:25.996Z,24.3
2018-03-03T01:58:16.314Z,23.8
2018-03-03T01:59:06.785Z,23.8
2018-03-03T01:59:56.569Z,23.7
2018-03-03T02:00:47.173Z,23.7
2018-03-03T02:01:37.145Z,23.7
2018-03-03T02:02:25.946Z,23.5
2018-03-03T02:03:15.993Z,23.2
2018-03-03T02:04:07.268Z,23.2
2018-03-03T02:04:57.486Z,23.2
2018-03-03T02:05:47.277Z,23.1
2018-03-03T02:06:36.970Z,23.2
2018-03-03T02:07:27.275Z,23.2
2018-03-03T02:08:17.425Z,23.2
2018-03-03T02:09:06.851Z,23.1
2018-03-03T02:09:56.950Z,23.2
2018-03-03T02:10:47.773Z,23.2
2018-03-03T02:11:36.930Z,23.3
2018-03-03T02:12:27.894Z,23.4
2018-03-03T02:13:16.296Z,23.6
2018-03-03T02:14:07.922Z,23.7
2018-03-03T02:14:58.769Z,23.8
2018-03-03T02:15:47.382Z,23.9
2018-03-03T02:16:38.177Z,24.1
2018-03-03T02:17:28.043Z,24.3
2018-03-03T02:18:17.264Z,24.3
2018-03-03T02:19:08.447Z,24.4
2018-03-03T02:19:56.747Z,24
2018-03-03T02:20:48.105Z,23.5
2018-03-03T02:21:38.862Z,23.3
2018-03-03T02:22:27.615Z,23.3
2018-03-03T02:23:17.512Z,23.2
2018-03-03T02:24:07.935Z,23.2
2018-03-03T02:24:57.707Z,23.2
2018-03-03T02:25:48.382Z,23.1
2018-03-03T02:26:38.433Z,23.1
2018-03-03T02:27:28.898Z,23.3
2018-03-03T02:28:19.098Z,23.4
2018-03-03T02:29:08.316Z,23.5
2018-03-03T02:29:58.682Z,23.7
2018-03-03T02:30:48.632Z,23.9
2018-03-03T02:31:38.232Z,24
2018-03-03T02:32:28.686Z,24.2
2018-03-03T02:33:18.692Z,24.3
2018-03-03T02:34:10.274Z,24.5
2018-03-03T02:35:00.260Z,24.6
2018-03-03T02:35:50.580Z,24.7
2018-03-03T02:36:40.062Z,24.8
2018-03-03T02:37:30.187Z,24.8
2018-03-03T02:38:20.209Z,24.9
2018-03-03T02:39:10.523Z,24.7
2018-03-03T02:39:59.987Z,23.8
2018-03-03T02:40:50.072Z,23.4
2018-03-03T02:41:40.493Z,23.3
2018-03-03T02:42:30.768Z,23.2
2018-03-03T02:43:20.529Z,23.1
2018-03-03T02:44:10.870Z,23.1
2018-03-03T02:45:01.177Z,23.1
2018-03-03T02:45:50.895Z,23.1
2018-03-03T02:46:40.491Z,23.1
2018-03-03T02:47:30.528Z,23.1
2018-03-03T02:48:20.679Z,23.2
2018-03-03T02:49:10.417Z,23.3
2018-03-03T02:50:00.764Z,23.4
2018-03-03T02:50:49.538Z,23.6
2018-03-03T02:51:40.234Z,23.7
2018-03-03T02:52:30.695Z,23.9
2018-03-03T02:53:19.540Z,23.9
2018-03-03T02:54:10.530Z,24.1
2018-03-03T02:54:59.583Z,23.7
2018-03-03T02:55:50.650Z,23.6
2018-03-03T02:56:40.198Z,23.5
2018-03-03T02:57:30.088Z,23.5
2018-03-03T02:58:20.176Z,23.4
2018-03-03T02:59:09.389Z,23.3
2018-03-03T02:59:59.723Z,23.1
2018-03-03T03:00:50.227Z,23
2018-03-03T03:01:40.725Z,23
2018-03-03T03:02:29.724Z,23
2018-03-03T03:03:20.470Z,23
2018-03-03T03:04:10.243Z,23
2018-03-03T03:05:01.888Z,23.1
2018-03-03T03:05:50.814Z,23
2018-03-03T03:06:41.078Z,23
2018-03-03T03:07:31.469Z,23.1
2018-03-03T03:08:21.511Z,23.2
2018-03-03T03:09:11.467Z,23.3
2018-03-03T03:10:00.512Z,23.4
2018-03-03T03:10:50.767Z,23.5
2018-03-03T03:11:40.904Z,23.6
2018-03-03T03:12:31.535Z,23.8
2018-03-03T03:13:20.929Z,23.9
2018-03-03T03:14:10.772Z,24.1
2018-03-03T03:15:01.278Z,24.1
2018-03-03T03:15:51.461Z,24.2
2018-03-03T03:16:40.480Z,23.6
2018-03-03T03:17:32.171Z,23.3
2018-03-03T03:18:22.060Z,23.1
2018-03-03T03:19:11.242Z,23
2018-03-03T03:20:02.624Z,23
2018-03-03T03:20:52.124Z,23.1
2018-03-03T03:21:41.709Z,23.1
2018-03-03T03:22:32.994Z,23
2018-03-03T03:23:22.358Z,23
2018-03-03T03:24:11.849Z,23.1
2018-03-03T03:25:02.534Z,23.1
2018-03-03T03:25:51.856Z,23.3
2018-03-03T03:26:42.276Z,23.3
2018-03-03T03:27:31.258Z,23.4
2018-03-03T03:28:22.364Z,23.6
2018-03-03T03:29:13.168Z,23.8
2018-03-03T03:30:01.979Z,23.9
2018-03-03T03:30:52.595Z,23.9
2018-03-03T03:31:42.979Z,24.1
2018-03-03T03:32:31.874Z,24.1
2018-03-03T03:33:22.276Z,23.8
2018-03-03T03:34:12.058Z,23.3
2018-03-03T03:35:03.153Z,23.1
2018-03-03T03:35:53.358Z,23.1
2018-03-03T03:36:41.908Z,23.1
2018-03-03T03:37:31.958Z,23
2018-03-03T03:38:22.470Z,23
2018-03-03T03:39:12.204Z,23
2018-03-03T03:40:02.306Z,23
2018-03-03T03:40:52.165Z,23.1
2018-03-03T03:41:44.183Z,23.1
2018-03-03T03:42:33.857Z,23.3
2018-03-03T03:43:22.539Z,23.4
2018-03-03T03:44:13.693Z,23.5
2018-03-03T03:45:04.081Z,23.7
2018-03-03T03:45:54.191Z,23.8
2018-03-03T03:46:42.897Z,23.9
2018-03-03T03:47:34.648Z,24.1
2018-03-03T03:48:24.145Z,24.1
2018-03-03T03:49:13.662Z,24.3
2018-03-03T03:50:04.141Z,24.3
2018-03-03T03:50:53.447Z,23.8
2018-03-03T03:51:43.899Z,23.3
2018-03-03T03:52:33.291Z,23.1
2018-03-03T03:53:23.637Z,23.1
2018-03-03T03:54:13.999Z,23
2018-03-03T03:55:04.234Z,23
2018-03-03T03:55:54.158Z,23
2018-03-03T03:56:44.859Z,23
2018-03-03T03:57:35.431Z,22.9
2018-03-03T03:58:25.822Z,22.9
2018-03-03T03:59:15.862Z,23.1
2018-03-03T04:00:05.364Z,23.1
2018-03-03T04:00:55.157Z,23.3
2018-03-03T04:01:46.320Z,23.4
2018-03-03T04:02:35.799Z,23.5
2018-03-03T04:03:25.279Z,23.6
2018-03-03T04:04:15.685Z,23.8
2018-03-03T04:05:05.756Z,23.9
2018-03-03T04:05:56.054Z,24
2018-03-03T04:06:45.519Z,24.1
2018-03-03T04:07:35.073Z,23.8
2018-03-03T04:08:25.768Z,23.3
2018-03-03T04:09:15.658Z,23.1
2018-03-03T04:10:04.771Z,23.1
2018-03-03T04:10:55.961Z,23
2018-03-03T04:11:45.899Z,22.9
2018-03-03T04:12:34.791Z,23
2018-03-03T04:13:24.824Z,22.9
2018-03-03T04:14:14.826Z,22.9
2018-03-03T04:15:05.107Z,22.9
2018-03-03T04:15:54.823Z,23
2018-03-03T04:16:45.378Z,23.1
2018-03-03T04:17:36.086Z,23.2
2018-03-03T04:18:25.964Z,23.3
2018-03-03T04:19:15.276Z,23.4
2018-03-03T04:20:04.947Z,23.6
2018-03-03T04:20:55.779Z,23.7
2018-03-03T04:21:45.823Z,23.8
2018-03-03T04:22:35.948Z,23.9
2018-03-03T04:23:26.406Z,24
2018-03-03T04:24:16.773Z,23.8
2018-03-03T04:25:06.706Z,23.3
2018-03-03T04:25:56.532Z,23.1
2018-03-03T04:26:46.803Z,23
2018-03-03T04:27:36.605Z,23
2018-03-03T04:28:25.378Z,22.9
2018-03-03T04:29:16.831Z,23
2018-03-03T04:30:06.574Z,22.9
2018-03-03T04:30:57.264Z,22.9
2018-03-03T04:31:46.976Z,23
2018-03-03T04:32:36.721Z,23.1
2018-03-03T04:33:27.697Z,23.3
2018-03-03T04:34:16.030Z,23.4
2018-03-03T04:35:07.973Z,23.5
2018-03-03T04:35:57.162Z,23.7
2018-03-03T04:36:46.934Z,23.8
2018-03-03T04:37:36.879Z,23.9
2018-03-03T04:38:26.455Z,24.1
2018-03-03T04:39:16.447Z,24.1
2018-03-03T04:40:07.269Z,24.3
2018-03-03T04:40:56.575Z,24.3
2018-03-03T04:41:47.696Z,24.1
2018-03-03T04:42:37.226Z,23.4
2018-03-03T04:43:27.925Z,23.2
2018-03-03T04:44:17.788Z,23.1
2018-03-03T04:45:08.488Z,23
2018-03-03T04:45:57.686Z,22.9
2018-03-03T04:46:47.649Z,22.9
2018-03-03T04:47:37.910Z,22.9
2018-03-03T04:48:27.910Z,22.9
2018-03-03T04:49:19.553Z,22.9
2018-03-03T04:50:07.661Z,22.9
2018-03-03T04:50:57.668Z,23.1
2018-03-03T04:51:48.625Z,23.1
2018-03-03T04:52:38.660Z,23.3
2018-03-03T04:53:29.550Z,23.4
2018-03-03T04:54:19.040Z,23.6
2018-03-03T04:55:09.344Z,23.7
2018-03-03T04:55:59.432Z,23.8
2018-03-03T04:56:48.590Z,23.9
2018-03-03T04:57:39.085Z,23.6
2018-03-03T04:58:28.188Z,23.2
2018-03-03T04:59:18.730Z,23
2018-03-03T05:00:07.628Z,22.9
2018-03-03T05:00:59.167Z,22.9
2018-03-03T05:01:48.328Z,22.9
2018-03-03T05:02:38.897Z,22.9
2018-03-03T05:03:28.430Z,22.9
2018-03-03T05:04:18.261Z,22.9
2018-03-03T05:05:08.845Z,22.9
2018-03-03T05:05:58.092Z,23
2018-03-03T05:06:49.714Z,23.1
2018-03-03T05:07:39.442Z,23.3
2018-03-03T05:08:29.027Z,23.4
2018-03-03T05:09:18.157Z,23.5
2018-03-03T05:10:09.839Z,23.6
2018-03-03T05:10:59.645Z,23.8
2018-03-03T05:11:48.687Z,23.8
2018-03-03T05:12:39.500Z,23.9
2018-03-03T05:13:29.907Z,23.5
2018-03-03T05:14:20.181Z,23.1
2018-03-03T05:15:09.234Z,23
2018-03-03T05:15:59.642Z,22.9
2018-03-03T05:16:48.571Z,22.9
2018-03-03T05:17:40.264Z,22.9
2018-03-03T05:18:28.918Z,23
2018-03-03T05:19:20.011Z,23
2018-03-03T05:20:10.736Z,22.9
2018-03-03T05:20:59.605Z,22.9
2018-03-03T05:21:49.559Z,23
2018-03-03T05:22:39.897Z,23.1
2018-03-03T05:23:30.692Z,23.2
2018-03-03T05:24:19.990Z,23.3
2018-03-03T05:25:10.352Z,23.4
2018-03-03T05:25:59.859Z,23.6
2018-03-03T05:26:50.674Z,23.7
2018-03-03T05:27:40.662Z,23.8
2018-03-03T05:28:31.407Z,23.9
2018-03-03T05:29:19.088Z,23.4
2018-03-03T05:30:10.964Z,23.1
2018-03-03T05:31:01.408Z,23
2018-03-03T05:31:50.973Z,22.9
2018-03-03T05:32:41.070Z,22.9
2018-03-03T05:33:31.131Z,22.9
2018-03-03T05:34:20.438Z,22.9
2018-03-03T05:35:11.158Z,23
2018-03-03T05:36:00.052Z,22.9
2018-03-03T05:36:51.165Z,23
2018-03-03T05:37:41.313Z,23.1
2018-03-03T05:38:31.360Z,23.2
2018-03-03T05:39:20.448Z,23.3
2018-03-03T05:40:11.683Z,23.4
2018-03-03T05:41:00.463Z,23.6
2018-03-03T05:41:52.606Z,23.8
2018-03-03T05:42:42.300Z,23.9
2018-03-03T05:43:31.128Z,24
2018-03-03T05:44:20.989Z,23.8
2018-03-03T05:45:12.087Z,23.5
2018-03-03T05:46:01.978Z,23.4
2018-03-03T05:46:52.121Z,23.4
2018-03-03T05:47:42.697Z,23.4
2018-03-03T05:48:32.434Z,23.3
2018-03-03T05:49:22.102Z,23
2018-03-03T05:50:12.289Z,22.9
2018-03-03T05:51:01.837Z,22.9
2018-03-03T05:51:51.414Z,22.9
2018-03-03T05:52:42.279Z,22.9
2018-03-03T05:53:31.724Z,22.9
2018-03-03T05:54:22.143Z,22.9
2018-03-03T05:55:12.859Z,23
2018-03-03T05:56:02.174Z,23
2018-03-03T05:56:51.931Z,22.9
2018-03-03T05:57:42.735Z,23
2018-03-03T05:58:32.234Z,23.1
2018-03-03T05:59:22.749Z,23.2
2018-03-03T06:00:12.715Z,23.3
2018-03-03T06:01:02.438Z,23.4
2018-03-03T06:01:52.909Z,23.4
2018-03-03T06:02:43.939Z,23.6
2018-03-03T06:03:33.489Z,23.7
2018-03-03T06:04:24.124Z,23.8
2018-03-03T06:05:14.169Z,23.5
2018-03-03T06:06:04.454Z,23.1
2018-03-03T06:06:54.522Z,23
2018-03-03T06:07:44.630Z,23
2018-03-03T06:08:33.769Z,22.9
2018-03-03T06:09:24.642Z,22.9
2018-03-03T06:10:14.137Z,23
2018-03-03T06:11:04.516Z,23.1
2018-03-03T06:11:54.600Z,23
2018-03-03T06:12:44.878Z,23
2018-03-03T06:14:14.765Z,23.1
2018-03-03T06:14:27.934Z,23.3
2018-03-03T06:15:18.592Z,23.3
2018-03-03T06:16:09.452Z,23.4
2018-03-03T06:16:59.239Z,23.6
2018-03-03T06:17:49.277Z,23.8
2018-03-03T06:18:38.806Z,23.9
2018-03-03T06:19:29.688Z,24.1
2018-03-03T06:20:19.484Z,24.2
2018-03-03T06:21:09.884Z,23.6
2018-03-03T06:21:59.048Z,23.4
2018-03-03T06:22:49.369Z,23.4
2018-03-03T06:23:39.655Z,23.3
2018-03-03T06:24:28.618Z,23.3
2018-03-03T06:25:19.356Z,23.1
2018-03-03T06:26:09.884Z,22.9
2018-03-03T06:26:59.636Z,22.9
2018-03-03T06:27:49.999Z,22.8
2018-03-03T06:28:39.808Z,22.8
2018-03-03T06:29:29.547Z,22.8
2018-03-03T06:30:19.854Z,22.9
2018-03-03T06:31:09.991Z,22.9
2018-03-03T06:31:59.967Z,22.9
2018-03-03T06:32:50.400Z,22.9
2018-03-03T06:33:40.400Z,22.9
2018-03-03T06:34:30.184Z,23
2018-03-03T06:35:20.484Z,23.1
2018-03-03T06:36:10.814Z,23.1
2018-03-03T06:37:00.296Z,23.2
2018-03-03T06:37:49.799Z,23.3
2018-03-03T06:38:40.681Z,23.4
2018-03-03T06:39:30.509Z,23.5
2018-03-03T06:40:20.540Z,23.6
2018-03-03T06:41:10.855Z,23.7
2018-03-03T06:42:00.955Z,23.2
2018-03-03T06:42:51.242Z,23
2018-03-03T06:43:40.793Z,22.9
2018-03-03T06:44:31.360Z,22.9
2018-03-03T06:45:21.415Z,22.9
2018-03-03T06:46:11.103Z,22.9
2018-03-03T06:47:01.002Z,22.9
2018-03-03T06:47:51.137Z,22.9
2018-03-03T06:48:41.678Z,22.9
2018-03-03T06:49:31.213Z,23
2018-03-03T06:50:21.520Z,23.1
2018-03-03T06:51:10.995Z,23.2
2018-03-03T06:52:01.651Z,23.3
2018-03-03T06:52:51.343Z,23.4
2018-03-03T06:53:41.669Z,23.6
2018-03-03T06:54:31.774Z,23.7
2018-03-03T06:55:22.092Z,23.8
2018-03-03T06:56:12.162Z,24
2018-03-03T06:57:01.955Z,23.9
2018-03-03T06:57:51.969Z,23.4
2018-03-03T06:58:42.342Z,23.4
2018-03-03T06:59:31.864Z,23.4
2018-03-03T07:00:22.121Z,23.3
2018-03-03T07:01:11.034Z,23.2
2018-03-03T07:02:00.535Z,22.9
2018-03-03T07:02:49.955Z,22.9
2018-03-03T07:03:41.132Z,22.9
2018-03-03T07:04:31.387Z,22.8
2018-03-03T07:05:21.433Z,22.9
2018-03-03T07:06:10.331Z,22.9
2018-03-03T07:07:00.604Z,22.9
2018-03-03T07:07:51.565Z,22.9
2018-03-03T07:08:41.287Z,22.9
2018-03-03T07:09:30.950Z,22.9
2018-03-03T07:10:22.069Z,23
2018-03-03T07:11:10.804Z,23.1
2018-03-03T07:12:02.008Z,23.2
2018-03-03T07:12:52.502Z,23.3
2018-03-03T07:13:42.027Z,23.4
2018-03-03T07:14:32.887Z,23.4
2018-03-03T07:15:22.096Z,23.6
2018-03-03T07:16:12.024Z,23.7
2018-03-03T07:17:01.595Z,23.8
2018-03-03T07:17:52.048Z,23.6
2018-03-03T07:18:41.868Z,23.2
2018-03-03T07:19:32.348Z,23.1
2018-03-03T07:20:21.681Z,23
2018-03-03T07:21:12.273Z,22.9
2018-03-03T07:22:01.364Z,22.9
2018-03-03T07:22:51.864Z,23
2018-03-03T07:23:42.390Z,23
2018-03-03T07:24:32.106Z,22.9
2018-03-03T07:25:22.133Z,22.9
2018-03-03T07:26:12.233Z,23.1
2018-03-03T07:27:02.998Z,23.1
2018-03-03T07:27:52.868Z,23.3
2018-03-03T07:28:41.911Z,23.4
2018-03-03T07:29:31.981Z,23.4
2018-03-03T07:30:23.193Z,23.6
2018-03-03T07:31:13.286Z,23.7
2018-03-03T07:32:02.289Z,23.8
2018-03-03T07:32:52.774Z,23.9
2018-03-03T07:33:43.105Z,24
2018-03-03T07:34:32.608Z,24.1
2018-03-03T07:35:23.323Z,23.7
2018-03-03T07:36:12.110Z,23.3
2018-03-03T07:37:03.233Z,23.1
2018-03-03T07:37:52.293Z,23.1
2018-03-03T07:38:43.241Z,23
2018-03-03T07:39:33.233Z,23
2018-03-03T07:40:23.923Z,22.9
2018-03-03T07:41:12.738Z,22.9
2018-03-03T07:42:03.602Z,23
2018-03-03T07:42:54.162Z,23
2018-03-03T07:43:43.577Z,22.9
2018-03-03T07:44:33.445Z,22.9
2018-03-03T07:45:23.497Z,23
2018-03-03T07:46:13.551Z,23.1
2018-03-03T07:47:02.270Z,23.2
2018-03-03T07:47:53.715Z,23.3
2018-03-03T07:48:42.840Z,23.4
2018-03-03T07:49:34.649Z,23.5
2018-03-03T07:50:24.508Z,23.6
2018-03-03T07:51:14.064Z,23.7
2018-03-03T07:52:03.797Z,23.8
2018-03-03T07:52:54.207Z,23.9
2018-03-03T07:53:44.144Z,23.4
2018-03-03T07:54:34.662Z,23.1
2018-03-03T07:55:24.781Z,23.1
2018-03-03T07:56:14.946Z,23
2018-03-03T07:57:05.063Z,23
2018-03-03T07:57:54.644Z,23
2018-03-03T07:58:44.986Z,23
2018-03-03T07:59:34.326Z,22.9
2018-03-03T08:00:24.333Z,22.9
2018-03-03T08:01:15.557Z,22.9
2018-03-03T08:02:05.315Z,23.1
2018-03-03T08:02:54.888Z,23.2
2018-03-03T08:03:45.170Z,23.3
2018-03-03T08:04:34.616Z,23.5
2018-03-03T08:05:26.569Z,23.6
2018-03-03T08:06:15.181Z,23.8
2018-03-03T08:07:05.305Z,23.9
2018-03-03T08:07:55.332Z,23.9
2018-03-03T08:08:46.628Z,24.1
2018-03-03T08:09:35.603Z,24.1
2018-03-03T08:10:26.011Z,24.2
2018-03-03T08:11:15.422Z,24.2
2018-03-03T08:12:06.168Z,23.6
2018-03-03T08:12:57.027Z,23.3
2018-03-03T08:13:45.981Z,23.1
2018-03-03T08:14:36.897Z,23.1
2018-03-03T08:15:25.295Z,22.9
2018-03-03T08:16:16.543Z,22.9
2018-03-03T08:17:05.917Z,22.9
2018-03-03T08:17:55.727Z,22.9
2018-03-03T08:18:45.761Z,22.8
2018-03-03T08:19:36.671Z,22.9
2018-03-03T08:20:26.787Z,22.9
2018-03-03T08:21:15.883Z,23.1
2018-03-03T08:22:06.447Z,23.2
2018-03-03T08:22:55.625Z,23.3
2018-03-03T08:23:46.784Z,23.5
2018-03-03T08:24:36.550Z,23.6
2018-03-03T08:25:26.838Z,23.8
2018-03-03T08:26:17.418Z,23.8
2018-03-03T08:27:05.411Z,23.9
2018-03-03T08:27:57.225Z,24
2018-03-03T08:28:47.216Z,24.1
2018-03-03T08:29:36.909Z,24.1
2018-03-03T08:30:27.067Z,24.1
2018-03-03T08:31:17.326Z,24.2
2018-03-03T08:32:07.544Z,24.3
2018-03-03T08:32:56.926Z,24.3
2018-03-03T08:33:47.142Z,24.3
2018-03-03T08:34:38.246Z,24.3
2018-03-03T08:35:26.822Z,24.3
2018-03-03T08:36:17.304Z,24.3
2018-03-03T08:37:07.763Z,24.3
2018-03-03T08:37:58.142Z,24.3
2018-03-03T08:38:48.006Z,24.3
2018-03-03T08:39:37.911Z,24.3
2018-03-03T08:40:28.139Z,24.3
2018-03-03T08:41:19.239Z,24.3
2018-03-03T08:42:08.688Z,24.3
2018-03-03T08:42:59.368Z,24.3
2018-03-03T08:43:49.375Z,24.3
2018-03-03T08:44:38.289Z,24.2
2018-03-03T08:45:28.977Z,23.6
2018-03-03T08:46:18.964Z,23.1
2018-03-03T08:47:09.296Z,23
2018-03-03T08:47:59.129Z,22.9
2018-03-03T08:48:49.456Z,22.8
2018-03-03T08:49:38.124Z,22.8
2018-03-03T08:50:27.569Z,22.8
2018-03-03T08:51:18.142Z,22.8
2018-03-03T08:52:07.903Z,22.8
2018-03-03T08:52:58.463Z,22.7
2018-03-03T08:53:47.886Z,22.7
2018-03-03T08:54:38.249Z,22.9
2018-03-03T08:55:28.905Z,23
2018-03-03T08:56:18.771Z,23.1
2018-03-03T08:57:08.233Z,23.4
2018-03-03T08:57:58.542Z,23.5
2018-03-03T08:58:49.242Z,23.6
2018-03-03T08:59:38.893Z,23.8
2018-03-03T09:00:29.519Z,23.9
2018-03-03T09:01:19.415Z,24
2018-03-03T09:02:08.288Z,24.1
2018-03-03T09:02:59.307Z,24.2
2018-03-03T09:03:48.670Z,24.3
2018-03-03T09:04:39.200Z,24.3
2018-03-03T09:05:28.988Z,24.3
2018-03-03T09:06:20.873Z,24.3
2018-03-03T09:07:09.462Z,24.4
2018-03-03T09:07:59.574Z,24.4
2018-03-03T09:08:48.892Z,24.4
2018-03-03T09:09:39.649Z,24.4
2018-03-03T09:10:29.586Z,24.4
2018-03-03T09:11:19.865Z,24.4
2018-03-03T09:12:09.314Z,24.4
2018-03-03T09:13:00.578Z,24.4
2018-03-03T09:13:48.990Z,24.4
2018-03-03T09:14:39.248Z,24.4
2018-03-03T09:15:31.212Z,24.4
2018-03-03T09:16:20.307Z,24.4
2018-03-03T09:17:09.067Z,24.4
2018-03-03T09:17:59.386Z,24.4
2018-03-03T09:18:50.258Z,24
2018-03-03T09:19:40.174Z,23.3
2018-03-03T09:20:30.825Z,23
2018-03-03T09:21:20.364Z,22.9
2018-03-03T09:22:10.174Z,22.8
2018-03-03T09:23:01.019Z,22.7
2018-03-03T09:23:50.914Z,22.6
2018-03-03T09:24:41.706Z,22.7
2018-03-03T09:25:29.988Z,22.6
2018-03-03T09:26:19.295Z,22.6
2018-03-03T09:27:10.707Z,22.5
2018-03-03T09:28:00.494Z,22.6
2018-03-03T09:28:50.501Z,22.6
2018-03-03T09:29:41.017Z,22.8
2018-03-03T09:30:31.903Z,22.9
2018-03-03T09:31:20.637Z,23
2018-03-03T09:32:11.707Z,23.1
2018-03-03T09:32:59.938Z,23.3
2018-03-03T09:33:51.262Z,23.4
2018-03-03T09:34:41.402Z,23.5
2018-03-03T09:35:30.802Z,23.6
2018-03-03T09:36:21.786Z,23.7
2018-03-03T09:37:11.511Z,23.8
2018-03-03T09:38:02.035Z,23.8
2018-03-03T09:38:51.130Z,23.9
2018-03-03T09:39:41.802Z,23.9
2018-03-03T09:40:32.555Z,23.9
2018-03-03T09:41:22.223Z,24
2018-03-03T09:42:11.760Z,24
2018-03-03T09:43:01.634Z,24
2018-03-03T09:43:52.118Z,24.1
2018-03-03T09:44:41.748Z,24.1
2018-03-03T09:45:32.260Z,24.1
2018-03-03T09:46:22.545Z,24.1
2018-03-03T09:47:11.752Z,24.1
2018-03-03T09:48:01.668Z,24.1
2018-03-03T09:48:52.149Z,24.1
2018-03-03T09:49:41.966Z,24.1
2018-03-03T09:50:31.460Z,23.6
2018-03-03T09:51:23.166Z,23.1
2018-03-03T09:52:12.420Z,22.8
2018-03-03T09:53:02.157Z,22.7
2018-03-03T09:53:52.820Z,22.6
2018-03-03T09:54:42.610Z,22.6
2018-03-03T09:55:33.420Z,22.6
2018-03-03T09:56:22.433Z,22.6
2018-03-03T09:57:12.845Z,22.5
2018-03-03T09:58:03.820Z,22.4
2018-03-03T09:58:54.000Z,22.4
2018-03-03T09:59:43.960Z,22.6
2018-03-03T10:00:33.050Z,22.6
2018-03-03T10:01:23.417Z,22.8
2018-03-03T10:02:13.806Z,22.9
2018-03-03T10:03:03.159Z,23.1
2018-03-03T10:03:52.999Z,23.3
2018-03-03T10:04:43.589Z,23.4
2018-03-03T10:05:33.172Z,23.5
2018-03-03T10:06:24.019Z,23.6
2018-03-03T10:07:13.412Z,23.6
2018-03-03T10:08:03.864Z,23.7
2018-03-03T10:08:52.949Z,23.8
2018-03-03T10:09:44.314Z,23.8
2018-03-03T10:10:34.039Z,23.9
2018-03-03T10:11:24.344Z,23.9
2018-03-03T10:12:13.942Z,23.9
2018-03-03T10:13:04.238Z,23.9
2018-03-03T10:13:53.291Z,23.9
2018-03-03T10:14:43.839Z,23.9
2018-03-03T10:15:34.455Z,23.9
2018-03-03T10:16:23.624Z,24
2018-03-03T10:17:14.538Z,24
2018-03-03T10:18:03.360Z,23.9
2018-03-03T10:18:53.906Z,24
2018-03-03T10:19:44.926Z,24
2018-03-03T10:20:34.044Z,24
2018-03-03T10:21:24.581Z,24
2018-03-03T10:22:14.533Z,23.5
2018-03-03T10:23:04.121Z,22.9
2018-03-03T10:23:54.320Z,22.8
2018-03-03T10:24:45.186Z,22.6
2018-03-03T10:25:34.298Z,22.6
2018-03-03T10:26:26.850Z,22.4
2018-03-03T10:27:15.593Z,22.4
2018-03-03T10:28:05.299Z,22.4
2018-03-03T10:28:54.394Z,22.4
2018-03-03T10:29:45.098Z,22.4
2018-03-03T10:30:36.034Z,22.4
2018-03-03T10:31:25.170Z,22.6
2018-03-03T10:32:15.328Z,22.6
2018-03-03T10:33:07.061Z,22.6
2018-03-03T10:33:55.143Z,22.8
2018-03-03T10:34:44.520Z,22.9
2018-03-03T10:35:35.573Z,23.1
2018-03-03T10:36:26.075Z,23.3
2018-03-03T10:37:15.885Z,23.5
2018-03-03T10:38:05.260Z,23.7
2018-03-03T10:38:55.670Z,23.8
2018-03-03T10:39:45.296Z,24
2018-03-03T10:40:35.130Z,24.1
2018-03-03T10:41:25.098Z,24.3
2018-03-03T10:42:15.612Z,24.4
2018-03-03T10:43:06.655Z,24.4
2018-03-03T10:43:56.329Z,24.6
2018-03-03T10:44:46.192Z,24.6
2018-03-03T10:45:35.695Z,24.8
2018-03-03T10:46:26.344Z,24.8
2018-03-03T10:47:16.669Z,24.9
2018-03-03T10:48:05.985Z,24.9
2018-03-03T10:48:56.397Z,25
2018-03-03T10:49:48.024Z,25.1
2018-03-03T10:50:36.423Z,25.1
2018-03-03T10:51:26.299Z,25.2
2018-03-03T10:52:16.223Z,25.3
2018-03-03T10:53:07.604Z,25.3
2018-03-03T10:53:57.964Z,25.4
2018-03-03T10:54:46.872Z,25.4
2018-03-03T10:55:38.002Z,25.5
2018-03-03T10:56:27.754Z,25.6
2018-03-03T10:57:16.681Z,25.6
2018-03-03T10:58:06.891Z,25.6
2018-03-03T10:58:56.207Z,25.6
2018-03-03T10:59:47.523Z,25.5
2018-03-03T11:00:35.977Z,25.5
2018-03-03T11:01:27.411Z,25.4
2018-03-03T11:02:15.241Z,25.4
2018-03-03T11:03:07.564Z,25.4
2018-03-03T11:03:58.103Z,25.5
2018-03-03T11:04:47.016Z,25.5
2018-03-03T11:05:36.601Z,25.6
2018-03-03T11:06:28.014Z,25.6
2018-03-03T11:07:17.664Z,25.6
2018-03-03T11:08:08.573Z,25.6
2018-03-03T11:08:56.643Z,25.6
2018-03-03T11:09:48.678Z,25.6
2018-03-03T11:10:37.258Z,25.7
2018-03-03T11:11:27.704Z,25.7